Main page
METAR-TAF:

METAR-TAF

Airports :

Jinnah International Airport

Karachi, Pakistan

latitude: 24-54N, longitude: 067-08E, elevation: 21 m

Current weather observation

The report was made 15 minutes ago, at 22:30 UTC
Wind 4 kt from the West/Southwest
Temperature 25°C
Humidity 61%
Pressure 1010 hPa
Visibility: 6000 m

METAR: OPKC 112230Z 25004KT 6000 NSC 25/17 Q1010 NOSIG

Time: 03:45 (22:45 UTC)

Forecast

The report was made 6 hours and 45 minutes ago, at 16:00 UTC
Forecast valid from 11 at 18 UTC to 12 at 24 UTC
Wind 8 kt from the Northwest
Visibility: 4000 m
haze
From UTC
Wind 10 kt from the West/Southwest with gusts up to 20 kt
Visibility: 6000 m
From UTC
Wind 8 kt from the West
Visibility: 4000 m
haze

TAF: OPKC 111600Z 1118/1224 31008KT 4000 HZ NSC FM 120700Z 24010G20KT 6000 NSC FM 121800 27008KT 4000 HZ NSC

Weather observations and forecasts of more than 4000 airports (METAR and TAF reports).

The available stations are represented by yellow and red dots on the map.

Hover mouse over dot to see the name of the station.

Then click to see weather observations and forecasts.

To change the map : click on the green buttons with a black cross to zoom in, on the green button with a dash to zoom out, or on the green arrows for adjacent maps.


METAR-TAF: